Terminal Aerodrome Forecast
Issued by NWS Pocatello, ID

Home | Current Version | Previous Version | Text Only | Print | Product List | Glossary On
Versions: 1 2 3 4 5 6 7 8 9 10 11 12 13 14 15 16 17 18 19 20 21 22 23 24 25 26 27 28 29
564
FTUS45 KPIH 280528 CCA
TAFPIH
TAF COR
KPIH 280528Z 2806/2906 24017G27KT P6SM VCSH SCT025 BKN040 OVC080
      TEMPO 2806/2808 2SM -SHSN BR BKN015 OVC030
     FM280800 19008KT P6SM SCT008 BKN060 OVC080
     FM281300 21006KT P6SM SCT035 SCT070 BKN160
     FM281800 25015KT P6SM BKN050 BKN120
     FM282000 25020G30KT P6SM VCSH BKN060 BKN100=

USA.gov is the U.S. government's official web portal to all federal, state and local government web resources and services.